Time;durP1;ratioP1;P1;durP2;ratioP2;P2;SDS_P1;SDS_P2;PMS_P1;PMS_P2;Temp;Humidity;BMP_temperature;BMP_pressure;BME280_temperature;BME280_humidity;BME280_pressure;Samples;Min_cycle;Max_cycle;Signal;HPM_P1;HPM_P2
2022/11/02 00:00:32;;;;;;;0.98;0.85;;;;;;;-0.94;73.80;94825.91;6148431;28;20048;-64
2022/11/02 00:03:36;;;;;;;1.02;0.90;;;;;;;-1.12;73.55;94832.06;6163071;28;20810;-64
2022/11/02 00:06:38;;;;;;;0.80;0.80;;;;;;;-1.03;73.60;94835.91;6180587;28;20039;-64
2022/11/02 00:09:39;;;;;;;1.10;1.00;;;;;;;-0.95;73.08;94839.75;6182044;28;20054;-64
2022/11/02 00:12:40;;;;;;;0.70;0.70;;;;;;;-0.96;73.50;94835.50;6153722;28;20054;-64
2022/11/02 00:15:47;;;;;;;0.70;0.70;;;;;;;-0.97;72.52;94826.09;6208030;28;20137;-64
2022/11/02 00:18:54;;;;;;;0.70;0.70;;;;;;;-1.08;73.17;94851.63;6210837;28;20047;-64
2022/11/02 00:21:57;;;;;;;1.02;1.02;;;;;;;-1.03;72.91;94830.75;6200955;28;20413;-64
2022/11/02 00:25:02;;;;;;;0.57;0.57;;;;;;;-0.87;72.85;94836.78;6201524;28;20500;-65
2022/11/02 00:28:05;;;;;;;1.02;1.02;;;;;;;-0.87;72.83;94825.63;6203964;28;20057;-66
2022/11/02 00:31:06;;;;;;;0.70;0.70;;;;;;;-1.02;72.80;94833.25;6191523;28;20055;-64
2022/11/02 00:34:12;;;;;;;0.80;0.80;;;;;;;-0.91;73.03;94843.84;6232286;28;20047;-65
2022/11/02 00:37:14;;;;;;;0.82;0.80;;;;;;;-0.78;71.98;94845.78;6167695;28;20458;-64
2022/11/02 00:40:17;;;;;;;1.08;0.80;;;;;;;-0.87;72.15;94846.28;6180179;28;20042;-64
2022/11/02 00:43:21;;;;;;;0.80;0.80;;;;;;;-1.00;72.27;94836.56;6167890;28;20472;-64
2022/11/02 00:46:24;;;;;;;0.60;0.60;;;;;;;-1.06;72.26;94824.00;6173407;28;20050;-65
2022/11/02 00:49:28;;;;;;;1.13;1.00;;;;;;;-1.00;72.72;94839.16;6148399;28;20046;-64
2022/11/02 00:52:30;;;;;;;1.45;1.05;;;;;;;-0.91;71.81;94850.75;6166616;28;20046;-65
2022/11/02 00:55:31;;;;;;;0.68;0.68;;;;;;;-0.77;71.88;94837.09;6167515;28;20699;-64
2022/11/02 00:58:35;;;;;;;4.68;0.90;;;;;;;-0.78;71.27;94858.69;6187904;28;20046;-64
2022/11/02 01:01:36;;;;;;;0.85;0.85;;;;;;;-0.79;71.12;94851.84;6200534;28;20786;-64
2022/11/02 01:04:38;;;;;;;0.82;0.82;;;;;;;-1.07;71.73;94860.22;6167724;28;20055;-64
2022/11/02 01:07:44;;;;;;;1.52;1.10;;;;;;;-0.97;72.28;94869.97;6163003;28;20039;-64
2022/11/02 01:10:49;;;;;;;1.08;0.98;;;;;;;-0.94;72.18;94867.22;6162700;28;20042;-65
2022/11/02 01:13:51;;;;;;;2.78;0.95;;;;;;;-0.87;71.21;94867.75;6152690;28;20042;-65
2022/11/02 01:16:56;;;;;;;1.15;0.90;;;;;;;-0.88;72.31;94880.72;6132802;28;20090;-65
2022/11/02 01:19:58;;;;;;;1.05;0.93;;;;;;;-0.97;71.80;94872.56;6137764;28;20569;-64
2022/11/02 01:23:01;;;;;;;1.10;1.00;;;;;;;-0.91;72.00;94884.31;6133598;28;20119;-64
2022/11/02 01:26:07;;;;;;;1.05;0.70;;;;;;;-0.82;70.73;94875.25;6134047;28;20043;-66
2022/11/02 01:29:12;;;;;;;1.45;0.93;;;;;;;-0.96;71.03;94883.72;6144276;28;20056;-64
2022/11/02 01:32:13;;;;;;;1.27;1.00;;;;;;;-0.99;72.15;94892.47;6145728;28;20077;-64
2022/11/02 01:35:15;;;;;;;1.55;1.10;;;;;;;-0.89;71.42;94884.25;6147378;28;20375;-64
2022/11/02 01:38:16;;;;;;;0.90;0.90;;;;;;;-0.87;71.54;94883.25;6154525;28;20053;-64
2022/11/02 01:41:21;;;;;;;0.95;0.88;;;;;;;-0.91;72.31;94892.06;6171276;28;20050;-64
2022/11/02 01:44:39;;;;;;;0.77;0.77;;;;;;;-0.75;72.02;94890.34;6165118;28;20046;-64
2022/11/02 01:47:45;;;;;;;0.95;0.95;;;;;;;-0.98;72.42;94896.72;6165941;28;20043;-65
2022/11/02 01:50:50;;;;;;;1.38;1.23;;;;;;;-0.98;71.93;94881.22;6165387;28;20055;-64
2022/11/02 01:53:58;;;;;;;1.40;1.30;;;;;;;-1.08;72.66;94895.50;6166275;28;20054;-65
2022/11/02 01:57:08;;;;;;;1.15;1.02;;;;;;;-0.96;72.49;94904.38;6165168;28;21180;-65
2022/11/02 02:00:17;;;;;;;1.45;1.35;;;;;;;-0.93;71.81;94892.16;6141345;28;20038;-65
2022/11/02 02:03:20;;;;;;;2.38;1.05;;;;;;;-0.94;72.59;94903.38;6178612;28;20698;-65
2022/11/02 02:06:27;;;;;;;3.50;0.88;;;;;;;-1.13;73.91;94907.81;6235956;28;20036;-65
2022/11/02 02:09:29;;;;;;;1.33;0.98;;;;;;;-1.04;73.59;94894.44;6239722;28;20052;-63
2022/11/02 02:12:32;;;;;;;1.88;1.25;;;;;;;-0.95;73.26;94891.38;6245190;28;20530;-65
2022/11/02 02:15:45;;;;;;;1.10;1.03;;;;;;;-0.86;72.25;94895.25;6245963;28;20145;-65
2022/11/02 02:18:55;;;;;;;1.98;1.70;;;;;;;-1.00;72.98;94898.53;6242216;28;21121;-65
2022/11/02 02:22:10;;;;;;;2.83;1.40;;;;;;;-1.07;73.54;94889.44;6245524;28;20048;-65
2022/11/02 02:25:49;;;;;;;2.25;1.40;;;;;;;-1.02;73.04;94909.84;6270747;28;21839;-65
2022/11/02 02:29:04;;;;;;;1.60;1.50;;;;;;;-1.16;73.85;94908.81;6272281;28;20043;-65
2022/11/02 02:32:15;;;;;;;2.53;1.40;;;;;;;-1.00;74.25;94902.84;6281561;28;20447;-65
2022/11/02 02:35:44;;;;;;;3.15;1.23;;;;;;;-1.10;74.57;94899.91;6263402;28;20037;-64
2022/11/02 02:38:55;;;;;;;1.58;1.38;;;;;;;-1.07;74.63;94920.41;6270381;28;21678;-64
2022/11/02 02:42:01;;;;;;;1.27;1.17;;;;;;;-1.05;74.59;94910.81;6274008;28;21738;-64
2022/11/02 02:45:32;;;;;;;1.90;1.40;;;;;;;-1.07;74.66;94915.25;6270246;28;20048;-64
2022/11/02 02:48:37;;;;;;;1.73;1.15;;;;;;;-1.05;74.75;94925.47;6268327;28;20121;-66
2022/11/02 02:51:43;;;;;;;4.50;1.20;;;;;;;-1.03;75.19;94924.50;6262822;28;20054;-66
2022/11/02 02:54:46;;;;;;;1.02;0.88;;;;;;;-0.91;74.19;94929.06;6239851;28;20053;-65
2022/11/02 02:57:53;;;;;;;1.67;1.57;;;;;;;-1.01;74.12;94938.16;6238905;28;20044;-64
2022/11/02 03:00:56;;;;;;;1.90;1.67;;;;;;;-1.08;74.74;94936.78;6240313;28;20090;-64
2022/11/02 03:04:00;;;;;;;2.95;1.92;;;;;;;-1.11;74.62;94951.59;6174904;28;20128;-64
2022/11/02 03:07:04;;;;;;;2.45;1.70;;;;;;;-1.05;74.59;94954.69;6140942;28;21237;-66
2022/11/02 03:10:20;;;;;;;2.10;1.90;;;;;;;-1.07;75.08;94964.28;6137146;28;20531;-63
2022/11/02 03:13:31;;;;;;;2.75;1.58;;;;;;;-1.02;75.63;94964.91;6139963;28;20075;-64
2022/11/02 03:16:51;;;;;;;2.28;2.08;;;;;;;-0.94;75.40;94952.41;6160579;28;21857;-66
2022/11/02 03:20:09;;;;;;;1.50;1.40;;;;;;;-0.92;75.49;94968.69;6169354;28;20043;-65
2022/11/02 03:23:24;;;;;;;1.83;1.73;;;;;;;-1.03;75.23;94963.22;6170049;28;20051;-64
2022/11/02 03:26:28;;;;;;;1.60;1.40;;;;;;;-1.00;75.43;94952.72;6158625;28;20045;-64
2022/11/02 03:29:45;;;;;;;1.88;1.52;;;;;;;-0.98;75.51;94958.66;6140133;28;20042;-64
2022/11/02 03:33:06;;;;;;;3.28;1.67;;;;;;;-1.03;75.12;94965.78;6144613;28;20232;-64
2022/11/02 03:36:14;;;;;;;3.35;1.85;;;;;;;-1.04;75.28;94964.13;6141420;28;20637;-65
2022/11/02 03:39:22;;;;;;;1.65;1.55;;;;;;;-0.92;74.61;94958.34;6145193;28;20039;-63
2022/11/02 03:42:31;;;;;;;1.75;1.65;;;;;;;-1.04;75.28;94971.88;6142009;28;20051;-66
2022/11/02 03:45:38;;;;;;;1.98;1.77;;;;;;;-0.98;75.36;94969.00;6143660;28;20524;-66
2022/11/02 03:48:46;;;;;;;2.03;1.55;;;;;;;-0.97;74.77;94978.38;6139828;28;20046;-65
2022/11/02 03:51:49;;;;;;;3.38;2.10;;;;;;;-1.01;75.30;94979.47;6166959;28;20740;-65
2022/11/02 03:54:53;;;;;;;1.88;1.70;;;;;;;-0.92;75.36;94991.91;6165504;28;20072;-65
2022/11/02 03:57:55;;;;;;;2.38;1.50;;;;;;;-0.84;75.04;94983.78;6141507;28;20050;-65
2022/11/02 04:01:02;;;;;;;2.55;1.60;;;;;;;-0.93;75.29;94992.84;6135490;28;20055;-65
2022/11/02 04:04:06;;;;;;;2.22;1.70;;;;;;;-0.94;75.39;94991.16;6123664;28;20948;-65
2022/11/02 04:07:08;;;;;;;2.42;1.75;;;;;;;-0.93;74.46;94987.66;6117312;28;20104;-66
2022/11/02 04:10:11;;;;;;;1.63;1.35;;;;;;;-0.83;74.20;95002.69;6122307;28;22108;-64
2022/11/02 04:16:33;;;;;;;2.33;1.80;;;;;;;-0.90;74.59;94997.00;6131116;28;20264;-64
2022/11/02 04:19:37;;;;;;;1.75;1.48;;;;;;;-0.85;74.39;94999.34;6130971;28;20410;-64
2022/11/02 04:26:01;;;;;;;1.48;0.98;;;;;;;-0.72;74.61;94992.66;6134028;28;20055;-64
2022/11/02 04:29:08;;;;;;;2.10;1.40;;;;;;;-0.77;74.24;95002.38;6142131;28;20042;-64
2022/11/02 04:32:11;;;;;;;0.88;0.80;;;;;;;-0.83;75.08;95005.28;6145139;28;20069;-65
2022/11/02 04:35:17;;;;;;;1.13;0.85;;;;;;;-0.63;75.18;94999.94;6140141;28;20437;-66
2022/11/02 04:41:42;;;;;;;0.50;0.50;;;;;;;-0.59;74.00;95006.63;6139062;28;20047;-65
2022/11/02 04:44:46;;;;;;;0.68;0.68;;;;;;;-0.46;73.44;95023.16;6140686;28;20122;-65
2022/11/02 04:47:48;;;;;;;0.70;0.55;;;;;;;-0.33;72.74;95025.13;6134363;28;20043;-65
2022/11/02 04:50:51;;;;;;;;;;;;;;;-0.34;72.24;95020.84;6142666;28;20434;-63
2022/11/02 04:53:57;;;;;;;0.88;0.50;;;;;;;-0.34;72.55;95015.69;6135746;28;19929;-64
2022/11/02 04:57:03;;;;;;;1.00;0.85;;;;;;;-0.50;72.21;95011.31;6147067;28;20050;-64
2022/11/02 05:00:06;;;;;;;1.38;1.10;;;;;;;-0.52;71.79;95023.47;6159714;28;20059;-65
2022/11/02 05:03:10;;;;;;;1.05;0.70;;;;;;;-0.40;70.88;95022.00;6187082;28;20048;-67
2022/11/02 05:06:14;;;;;;;1.50;1.02;;;;;;;-0.53;71.98;95021.81;6267683;28;20458;-64
2022/11/02 05:09:18;;;;;;;1.20;1.10;;;;;;;-0.48;70.86;95045.66;6263580;28;20040;-66
2022/11/02 05:12:22;;;;;;;1.40;1.30;;;;;;;-0.46;71.12;95049.00;6268500;28;20040;-64
2022/11/02 05:15:23;;;;;;;0.82;0.82;;;;;;;-0.43;71.15;95036.84;6262444;28;20045;-64
2022/11/02 05:18:30;;;;;;;1.10;0.93;;;;;;;-0.51;71.84;95040.66;6280726;28;20135;-66
2022/11/02 05:21:32;;;;;;;0.82;0.82;;;;;;;-0.36;70.76;95043.38;6261794;28;20136;-66
2022/11/02 05:24:38;;;;;;;0.73;0.70;;;;;;;-0.45;71.35;95049.84;6269215;28;20052;-64
2022/11/02 05:27:42;;;;;;;1.35;1.20;;;;;;;-0.52;71.06;95045.91;6264054;28;20684;-63
2022/11/02 05:30:44;;;;;;;1.00;0.90;;;;;;;-0.52;71.93;95054.47;6268360;28;20530;-64
2022/11/02 05:33:51;;;;;;;1.17;0.90;;;;;;;-0.50;71.40;95047.50;6262700;28;20760;-65
2022/11/02 05:36:52;;;;;;;1.80;1.00;;;;;;;-0.41;70.73;95050.53;6265988;28;20780;-65
2022/11/02 05:39:57;;;;;;;0.90;0.90;;;;;;;-0.20;70.06;95046.00;6263373;28;20423;-66
2022/11/02 05:43:00;;;;;;;1.40;1.27;;;;;;;-0.37;70.00;95054.59;6269940;28;20392;-65
2022/11/02 05:46:04;;;;;;;1.63;1.13;;;;;;;-0.21;69.98;95050.31;6266225;28;20036;-64
2022/11/02 05:49:08;;;;;;;0.82;0.68;;;;;;;-0.21;69.83;95058.09;6273350;28;20090;-64
2022/11/02 05:52:09;;;;;;;;;;;;;;;-0.36;69.95;95054.53;6265524;28;20052;-64
2022/11/02 05:55:11;;;;;;;1.20;1.10;;;;;;;-0.28;70.13;95061.91;6273955;28;20428;-65
2022/11/02 05:58:18;;;;;;;0.80;0.80;;;;;;;-0.27;69.87;95059.22;6268513;28;20427;-71
2022/11/02 06:01:20;;;;;;;2.10;1.00;;;;;;;-0.25;70.61;95059.16;6281963;28;20117;-71
2022/11/02 06:04:26;;;;;;;1.67;1.10;;;;;;;-0.14;69.46;95067.22;6265177;28;21877;-73
2022/11/02 06:07:30;;;;;;;1.08;1.02;;;;;;;-0.17;69.58;95064.78;6257958;28;20036;-69
2022/11/02 06:10:35;;;;;;;1.45;0.50;;;;;;;-0.08;69.42;95058.31;6267489;28;20037;-71
2022/11/02 06:13:37;;;;;;;1.67;0.82;;;;;;;-0.04;68.46;95078.72;6261210;28;20692;-71
2022/11/02 06:16:44;;;;;;;1.10;0.85;;;;;;;-0.07;68.59;95067.72;6279247;28;20126;-71
2022/11/02 06:19:49;;;;;;;0.60;0.60;;;;;;;0.06;67.58;95075.66;6270302;28;20135;-71
2022/11/02 06:22:52;;;;;;;0.90;0.82;;;;;;;-0.09;68.06;95072.13;6269452;28;20037;-70
2022/11/02 06:25:57;;;;;;;0.70;0.70;;;;;;;0.08;67.88;95079.00;6272594;28;20044;-76
2022/11/02 06:29:03;;;;;;;0.85;0.82;;;;;;;0.04;67.26;95077.50;6261181;28;20151;-72
2022/11/02 06:32:08;;;;;;;0.73;0.70;;;;;;;-0.09;65.99;95041.94;6265495;28;20082;-71
2022/11/02 06:35:12;;;;;;;0.80;0.80;;;;;;;0.04;67.05;95077.50;6264794;28;20049;-71
2022/11/02 06:38:14;;;;;;;0.98;0.80;;;;;;;0.26;67.15;95072.03;6273640;28;20109;-71
2022/11/02 06:41:21;;;;;;;1.10;1.00;;;;;;;0.65;65.94;95079.38;6266487;28;20523;-71
2022/11/02 06:44:25;;;;;;;0.65;0.63;;;;;;;0.78;65.16;95080.41;6295489;28;20048;-70
2022/11/02 06:47:32;;;;;;;0.80;0.80;;;;;;;0.70;64.02;95072.22;6296141;28;20045;-70
2022/11/02 06:50:38;;;;;;;0.52;0.52;;;;;;;0.62;64.13;95066.63;6298335;28;20060;-72
2022/11/02 06:53:42;;;;;;;1.00;0.80;;;;;;;0.40;65.52;95075.56;6295081;28;20057;-70
2022/11/02 06:56:46;;;;;;;1.00;0.63;;;;;;;0.38;66.02;95082.56;6296982;28;20412;-70
2022/11/02 06:59:50;;;;;;;0.60;0.60;;;;;;;0.37;65.24;95073.13;6296602;28;20052;-70
2022/11/02 07:03:03;;;;;;;1.17;0.57;;;;;;;0.40;66.17;95090.25;6268719;28;20081;-70
2022/11/02 07:06:06;;;;;;;0.60;0.60;;;;;;;0.46;65.69;95078.75;6194973;28;20056;-71
2022/11/02 07:09:11;;;;;;;0.80;0.75;;;;;;;0.25;66.17;95081.53;6190707;28;20063;-71
2022/11/02 07:12:15;;;;;;;0.70;0.70;;;;;;;0.12;67.05;95083.94;6195993;28;20081;-70
2022/11/02 07:15:21;;;;;;;0.88;0.88;;;;;;;0.15;66.79;95075.19;6195396;28;20042;-69
2022/11/02 07:18:26;;;;;;;1.23;0.77;;;;;;;0.18;67.38;95077.63;6194242;28;20050;-71
2022/11/02 07:21:32;;;;;;;1.63;1.20;;;;;;;0.07;68.26;95080.75;6176855;28;20038;-70
2022/11/02 07:24:33;;;;;;;1.23;1.13;;;;;;;-0.01;69.23;95086.31;6189448;28;20051;-70
2022/11/02 07:27:38;;;;;;;1.83;1.00;;;;;;;0.19;69.13;95092.22;6171806;28;20078;-71
2022/11/02 07:30:40;;;;;;;1.88;1.33;;;;;;;0.19;69.98;95089.63;6172213;28;20054;-71
2022/11/02 07:33:44;;;;;;;0.88;0.88;;;;;;;0.34;69.26;95091.41;6170903;28;20043;-70
2022/11/02 07:36:46;;;;;;;0.80;0.80;;;;;;;0.15;69.39;95095.88;6173544;28;20086;-71
2022/11/02 07:39:47;;;;;;;1.23;0.77;;;;;;;0.23;70.27;95096.31;6156833;28;20050;-70
2022/11/02 07:42:52;;;;;;;1.33;1.17;;;;;;;0.30;70.65;95097.66;6138923;28;20102;-70
2022/11/02 07:45:55;;;;;;;1.00;0.90;;;;;;;0.37;70.67;95093.84;6157345;28;20053;-70
2022/11/02 07:48:59;;;;;;;0.77;0.77;;;;;;;0.20;71.09;95093.91;6157717;28;20058;-70
2022/11/02 07:52:03;;;;;;;0.50;0.40;;;;;;;0.39;71.54;95102.31;6164429;28;20042;-71
2022/11/02 07:55:08;;;;;;;0.50;0.50;;;;;;;0.66;69.36;95096.59;6158794;28;20350;-72
2022/11/02 07:58:15;;;;;;;1.60;0.60;;;;;;;0.38;70.32;95103.25;6166449;28;20038;-71
2022/11/02 08:01:19;;;;;;;2.30;1.15;;;;;;;0.42;69.27;95099.56;6193583;28;20133;-72
2022/11/02 08:04:22;;;;;;;;;;;;;;;0.58;69.24;95091.84;6211667;28;20054;-71
2022/11/02 08:07:27;;;;;;;1.35;0.90;;;;;;;0.84;68.44;95090.41;6217210;28;19936;-70
2022/11/02 08:10:34;;;;;;;0.60;0.60;;;;;;;0.84;68.60;95103.34;6192597;28;20062;-70
2022/11/02 08:13:36;;;;;;;0.75;0.73;;;;;;;0.85;68.19;95097.28;6213286;28;20064;-71
2022/11/02 08:16:40;;;;;;;0.55;0.55;;;;;;;0.95;67.71;95107.94;6194098;28;20084;-71
2022/11/02 08:19:41;;;;;;;0.70;0.70;;;;;;;1.43;67.11;95102.69;6192474;28;20090;-71
2022/11/02 08:22:45;;;;;;;0.47;0.40;;;;;;;1.68;65.04;95110.72;6217507;28;20041;-71
2022/11/02 08:25:53;;;;;;;0.40;0.40;;;;;;;1.60;63.69;95099.97;6217967;28;20129;-71
2022/11/02 08:28:59;;;;;;;0.68;0.68;;;;;;;1.46;64.71;95102.50;6211807;28;20058;-70
2022/11/02 08:32:01;;;;;;;0.50;0.50;;;;;;;1.57;64.15;95095.78;6194451;28;20103;-70
2022/11/02 08:35:03;;;;;;;0.60;0.52;;;;;;;1.25;65.29;95110.59;6195868;28;20060;-70
2022/11/02 08:38:06;;;;;;;0.70;0.55;;;;;;;1.36;65.78;95102.22;6216773;28;20421;-71
2022/11/02 08:41:13;;;;;;;0.47;0.47;;;;;;;1.44;65.61;95109.53;6217919;28;20523;-72
2022/11/02 08:44:20;;;;;;;0.50;0.35;;;;;;;1.54;65.63;95110.69;6196753;28;20121;-69
2022/11/02 08:47:26;;;;;;;0.38;0.38;;;;;;;1.07;65.92;95119.38;6214908;28;20036;-72
2022/11/02 08:50:27;;;;;;;0.73;0.73;;;;;;;0.90;67.32;95110.78;6238241;28;20058;-70
2022/11/02 08:53:31;;;;;;;;;;;;;;;1.28;65.73;95118.19;6175353;28;20678;-71
2022/11/02 08:56:35;;;;;;;1.20;0.60;;;;;;;1.05;66.10;95108.28;6178784;28;20614;-71
2022/11/02 08:59:39;;;;;;;0.88;0.63;;;;;;;0.83;67.39;95114.63;6174244;28;20724;-71
2022/11/02 09:02:41;;;;;;;0.40;0.40;;;;;;;0.77;67.89;95114.16;6173569;28;20101;-72
2022/11/02 09:05:45;;;;;;;0.57;0.57;;;;;;;0.85;68.05;95118.00;6175959;28;20092;-71
2022/11/02 09:08:47;;;;;;;1.00;0.70;;;;;;;0.89;67.02;95109.13;6175856;28;20386;-70
2022/11/02 09:11:52;;;;;;;0.60;0.60;;;;;;;0.93;68.04;95114.94;6177528;28;20167;-71
2022/11/02 09:14:53;;;;;;;2.00;0.60;;;;;;;1.43;67.64;95121.66;6198540;28;20054;-73
2022/11/02 09:17:55;;;;;;;1.35;0.98;;;;;;;1.85;65.74;95120.13;6191900;28;20054;-70
2022/11/02 09:21:03;;;;;;;0.63;0.63;;;;;;;1.79;64.72;95116.13;6177006;28;20046;-72
2022/11/02 09:24:05;;;;;;;2.70;0.95;;;;;;;1.77;65.45;95115.38;6172500;28;20047;-71
2022/11/02 09:27:09;;;;;;;1.05;0.80;;;;;;;2.11;65.10;95113.38;6173552;28;20050;-76
2022/11/02 09:30:11;;;;;;;;;;;;;;;3.00;62.04;95120.94;6167068;28;20126;-71
2022/11/02 09:33:12;;;;;;;1.70;0.80;;;;;;;3.15;60.52;95109.56;6176104;28;19925;-71
2022/11/02 09:36:20;;;;;;;0.70;0.70;;;;;;;3.13;60.26;95120.97;6179260;28;20046;-69
2022/11/02 09:39:24;;;;;;;1.10;0.80;;;;;;;2.88;60.33;95106.09;6173208;28;20488;-71
2022/11/02 09:43:00;;;;;;;2.10;0.80;;;;;;;2.46;61.60;95119.06;6197183;28;20049;-71
2022/11/02 09:46:16;;;;;;;0.65;0.65;;;;;;;2.14;62.22;95115.78;6201212;28;20134;-70
2022/11/02 09:49:20;;;;;;;1.48;0.73;;;;;;;1.76;63.04;95116.31;6188581;28;20054;-71
2022/11/02 09:52:32;;;;;;;0.88;0.80;;;;;;;1.43;63.94;95123.41;6174548;28;20061;-69
2022/11/02 09:55:36;;;;;;;1.15;0.73;;;;;;;1.49;64.02;95123.06;6177003;28;21086;-71
2022/11/02 09:58:40;;;;;;;1.17;0.95;;;;;;;1.18;65.84;95119.63;6175686;28;20046;-70
2022/11/02 10:02:24;;;;;;;1.00;0.90;;;;;;;1.21;66.17;95128.97;6182982;28;20069;-70
2022/11/02 10:05:45;;;;;;;1.08;0.90;;;;;;;0.89;67.42;95123.81;6177958;28;20054;-72
2022/11/02 10:09:00;;;;;;;1.20;1.10;;;;;;;0.73;68.38;95123.81;6181158;28;21926;-70
2022/11/02 10:12:13;;;;;;;1.48;1.25;;;;;;;0.55;69.54;95117.06;6187882;28;20412;-70
2022/11/02 10:15:21;;;;;;;1.10;1.00;;;;;;;0.73;68.94;95118.63;6257526;28;20141;-70
2022/11/02 10:18:37;;;;;;;1.30;1.20;;;;;;;0.69;69.71;95122.31;6198783;28;20177;-71
2022/11/02 10:21:48;;;;;;;2.78;0.90;;;;;;;0.93;67.41;95119.31;6182270;28;20091;-68
2022/11/02 10:24:56;;;;;;;1.25;1.15;;;;;;;0.73;68.18;95117.81;6195164;28;20048;-67
2022/11/02 10:28:04;;;;;;;1.27;0.90;;;;;;;0.87;68.12;95115.28;6199725;28;20058;-67
2022/11/02 10:31:21;;;;;;;1.30;1.20;;;;;;;1.00;67.38;95118.06;6199366;28;20103;-75
2022/11/02 10:34:28;;;;;;;0.70;0.70;;;;;;;1.01;67.00;95122.31;6198150;28;20049;-68
2022/11/02 10:38:13;;;;;;;2.15;1.08;;;;;;;1.13;66.75;95116.44;6198333;28;20054;-66
2022/11/02 10:41:40;;;;;;;1.00;0.90;;;;;;;1.17;66.45;95127.50;6200203;28;20051;-65
2022/11/02 10:44:53;;;;;;;1.23;1.13;;;;;;;1.00;66.86;95123.25;6200140;28;20051;-66
2022/11/02 10:48:30;;;;;;;1.25;0.85;;;;;;;0.96;67.97;95130.31;6186753;28;20054;-65
2022/11/02 10:51:34;;;;;;;1.42;1.15;;;;;;;0.70;68.89;95120.56;6166315;28;20102;-66
2022/11/02 10:54:37;;;;;;;0.98;0.80;;;;;;;0.69;68.86;95122.31;6172157;28;20058;-67
2022/11/02 10:57:44;;;;;;;1.30;1.20;;;;;;;0.58;69.13;95125.47;6173434;28;20050;-66
2022/11/02 11:00:52;;;;;;;1.73;1.45;;;;;;;0.47;69.06;95130.38;6176429;28;20044;-66
2022/11/02 11:04:31;;;;;;;1.70;1.10;;;;;;;0.36;69.49;95130.13;6151747;28;20052;-66
2022/11/02 11:07:32;;;;;;;0.93;0.93;;;;;;;0.50;69.56;95131.97;6161469;28;20057;-64
2022/11/02 11:10:37;;;;;;;1.23;1.13;;;;;;;0.43;70.28;95127.13;6151839;28;20055;-66
2022/11/02 11:13:42;;;;;;;1.77;1.23;;;;;;;0.18;70.75;95124.16;6156337;28;20048;-66
2022/11/02 11:16:52;;;;;;;1.50;1.40;;;;;;;0.19;71.55;95134.41;6150552;28;20046;-70
2022/11/02 11:19:56;;;;;;;3.20;1.05;;;;;;;0.29;72.28;95127.03;6147613;28;20046;-71
2022/11/02 11:23:19;;;;;;;1.95;1.02;;;;;;;0.20;72.89;95127.53;6226565;28;20040;-69
2022/11/02 11:26:29;;;;;;;0.82;0.82;;;;;;;0.20;72.76;95124.94;6199811;28;20058;-67
2022/11/02 11:29:36;;;;;;;0.98;0.90;;;;;;;-0.02;73.56;95132.94;6171031;28;20433;-68
2022/11/02 11:32:38;;;;;;;2.47;1.77;;;;;;;-0.03;74.03;95139.03;6168893;28;21499;-69
2022/11/02 11:35:46;;;;;;;0.90;0.68;;;;;;;0.17;74.12;95135.41;6155260;28;21684;-71
2022/11/02 11:38:55;;;;;;;0.70;0.70;;;;;;;0.20;73.92;95140.44;6160683;28;20526;-76
2022/11/02 11:42:04;;;;;;;0.73;0.60;;;;;;;0.08;74.42;95139.31;6150532;28;20051;-67
2022/11/02 11:45:16;;;;;;;1.23;1.02;;;;;;;-0.05;75.58;95141.69;6159864;28;20051;-66
2022/11/02 11:48:23;;;;;;;1.42;0.90;;;;;;;-0.07;76.42;95145.28;6163638;28;20050;-67
2022/11/02 11:51:29;;;;;;;1.70;1.17;;;;;;;-0.01;75.65;95138.03;6167270;28;20066;-66
2022/11/02 11:54:32;;;;;;;1.08;0.90;;;;;;;-0.10;77.04;95137.69;6173063;28;20046;-66
2022/11/02 11:57:33;;;;;;;0.90;0.90;;;;;;;0.11;76.49;95146.06;6169752;28;20078;-67
2022/11/02 12:00:35;;;;;;;1.17;0.95;;;;;;;-0.13;77.44;95135.25;6159148;28;20055;-65
2022/11/02 12:04:06;;;;;;;1.58;1.20;;;;;;;-0.03;77.76;95139.88;6150554;28;20572;-65
2022/11/02 12:07:39;;;;;;;1.23;1.13;;;;;;;-0.07;76.75;95138.34;6123660;28;20047;-66
2022/11/02 12:11:09;;;;;;;1.60;1.00;;;;;;;-0.13;77.75;95138.66;6141321;28;20051;-68
2022/11/02 12:14:44;;;;;;;1.10;1.00;;;;;;;0.02;77.41;95142.22;6128968;28;20117;-65
2022/11/02 12:17:53;;;;;;;1.33;1.23;;;;;;;-0.08;77.51;95146.19;6141378;28;20043;-65
2022/11/02 12:21:17;;;;;;;1.30;1.00;;;;;;;-0.29;78.07;95142.94;6182220;28;20094;-66
2022/11/02 12:24:32;;;;;;;2.50;1.20;;;;;;;-0.38;78.64;95148.56;6164070;28;20902;-66
2022/11/02 12:27:58;;;;;;;1.02;0.93;;;;;;;-0.22;77.86;95154.66;6128119;28;22554;-66
2022/11/02 12:31:40;;;;;;;0.85;0.63;;;;;;;-0.40;77.19;95145.22;6130174;28;20061;-66
2022/11/02 12:34:57;;;;;;;1.00;0.80;;;;;;;-0.62;77.95;95146.28;6136631;28;20288;-71
2022/11/02 12:38:18;;;;;;;0.85;0.70;;;;;;;-0.68;77.96;95146.53;6156319;28;20176;-66
2022/11/02 12:41:22;;;;;;;2.00;0.95;;;;;;;-0.96;78.30;95155.63;6138293;28;20051;-65
2022/11/02 12:44:32;;;;;;;1.15;0.85;;;;;;;-0.91;79.38;95163.16;6125880;28;20494;-64
2022/11/02 12:47:54;;;;;;;1.85;1.33;;;;;;;-1.08;79.55;95152.78;6132452;28;20877;-64
2022/11/02 12:51:04;;;;;;;1.58;1.05;;;;;;;-0.95;78.90;95165.03;6127685;28;20063;-65
2022/11/02 12:54:19;;;;;;;2.78;1.40;;;;;;;-1.09;78.81;95145.94;6141256;28;20644;-74
2022/11/02 12:57:28;;;;;;;4.85;1.73;;;;;;;-1.01;78.75;95155.00;6164941;28;20043;-75
2022/11/02 13:00:31;;;;;;;1.98;1.50;;;;;;;-0.89;79.53;95163.09;6174236;28;20050;-74
2022/11/02 13:04:11;;;;;;;2.13;1.35;;;;;;;-0.93;79.27;95163.22;6198981;28;20409;-73
2022/11/02 13:07:16;;;;;;;2.20;1.27;;;;;;;-0.89;78.55;95163.09;6238286;28;20052;-65
2022/11/02 13:10:29;;;;;;;1.30;0.93;;;;;;;-0.92;79.32;95164.06;6237643;28;20058;-66
2022/11/02 13:13:40;;;;;;;1.20;1.08;;;;;;;-1.00;78.90;95158.41;6237299;28;20367;-76
2022/11/02 13:17:25;;;;;;;2.13;1.30;;;;;;;-1.19;78.95;95161.88;6243597;28;20043;-65
2022/11/02 13:20:39;;;;;;;1.30;1.08;;;;;;;-1.24;79.64;95165.56;6250421;28;20054;-73
2022/11/02 13:24:04;;;;;;;1.70;0.93;;;;;;;-1.15;79.78;95162.56;6243596;28;20032;-74
2022/11/02 13:27:30;;;;;;;1.10;1.00;;;;;;;-1.07;79.80;95160.47;6245485;28;20101;-75
2022/11/02 13:30:35;;;;;;;0.88;0.88;;;;;;;-0.97;80.19;95161.69;6244549;28;20058;-66
2022/11/02 13:33:49;;;;;;;0.98;0.73;;;;;;;-0.98;79.74;95172.94;6260126;28;20119;-67
2022/11/02 13:36:51;;;;;;;0.57;0.57;;;;;;;-0.84;79.90;95164.53;6245282;28;20077;-66
2022/11/02 13:40:01;;;;;;;1.02;0.93;;;;;;;-0.92;80.11;95164.91;6260309;28;20430;-66
2022/11/02 13:43:05;;;;;;;1.25;1.15;;;;;;;-0.68;79.62;95169.78;6246048;28;20113;-64
2022/11/02 13:46:47;;;;;;;1.25;1.00;;;;;;;-0.69;79.57;95161.22;6243854;28;20075;-65
2022/11/02 13:49:54;;;;;;;0.80;0.80;;;;;;;-0.74;79.58;95173.50;6243436;28;22036;-64
2022/11/02 13:53:00;;;;;;;0.77;0.77;;;;;;;-0.91;79.29;95176.06;6235229;28;20056;-63
2022/11/02 13:56:08;;;;;;;1.23;0.90;;;;;;;-0.81;80.43;95179.06;6253581;28;20176;-63
2022/11/02 13:59:32;;;;;;;0.93;0.70;;;;;;;-0.73;79.50;95171.78;6240708;28;20063;-64
2022/11/02 14:02:42;;;;;;;1.50;1.10;;;;;;;-0.78;79.96;95171.16;6234902;28;20055;-63
2022/11/02 14:05:57;;;;;;;0.70;0.70;;;;;;;-0.46;78.71;95173.00;6164166;28;20137;-64
2022/11/02 14:09:08;;;;;;;0.82;0.65;;;;;;;-0.56;78.60;95169.22;6168116;28;20519;-63
2022/11/02 14:12:21;;;;;;;2.30;2.10;;;;;;;-0.66;79.01;95175.72;6168281;28;20081;-63
2022/11/02 14:15:22;;;;;;;1.50;1.10;;;;;;;-0.56;78.96;95173.56;6165750;28;20101;-64
2022/11/02 14:18:29;;;;;;;1.25;0.95;;;;;;;-0.46;78.80;95170.44;6163974;28;20181;-64
2022/11/02 14:21:43;;;;;;;1.23;1.13;;;;;;;-0.43;78.41;95176.38;6168553;28;20038;-64
2022/11/02 14:24:44;;;;;;;1.20;1.10;;;;;;;-0.57;78.93;95175.28;6171608;28;20189;-64
2022/11/02 14:27:53;;;;;;;1.10;0.95;;;;;;;-0.62;79.14;95173.81;6177909;28;20054;-64
2022/11/02 14:30:54;;;;;;;1.50;1.00;;;;;;;-0.54;79.08;95163.97;6166140;28;20467;-65
2022/11/02 14:34:07;;;;;;;1.27;1.00;;;;;;;-0.61;78.35;95168.59;6168384;28;20066;-66
2022/11/02 14:37:33;;;;;;;1.05;0.95;;;;;;;-0.60;78.73;95167.69;6165366;28;20046;-63
2022/11/02 14:41:28;;;;;;;1.05;0.95;;;;;;;-0.39;78.48;95177.91;6193328;28;20124;-63
2022/11/02 14:44:49;;;;;;;0.80;0.80;;;;;;;-0.40;78.21;95176.22;6173837;28;20066;-63
2022/11/02 14:48:06;;;;;;;0.80;0.80;;;;;;;-0.50;78.07;95176.66;6216139;28;20640;-71
2022/11/02 14:51:17;;;;;;;0.70;0.70;;;;;;;-0.53;78.43;95179.41;6158526;28;20107;-66
2022/11/02 14:54:21;;;;;;;1.00;1.00;;;;;;;-0.57;78.00;95175.28;6164881;28;20047;-65
2022/11/02 14:57:28;;;;;;;0.70;0.70;;;;;;;-0.47;77.24;95176.50;6166416;28;20177;-70
2022/11/02 15:00:55;;;;;;;2.22;1.27;;;;;;;-0.58;78.42;95175.38;6163970;28;20047;-72